createdAt,value
2017-05-27T00:00:04.156Z,1005.26
2017-05-27T00:03:55.650Z,1005.32
2017-05-27T00:06:19.801Z,1005.23
2017-05-27T00:08:43.905Z,1005.27
2017-05-27T00:11:08.004Z,1005.2
2017-05-27T00:13:32.094Z,1005.23
2017-05-27T00:15:56.190Z,1005.23
2017-05-27T00:18:20.272Z,1005.22
2017-05-27T00:20:35.940Z,1005.23
2017-05-27T00:23:00.027Z,1005.18
2017-05-27T00:25:24.099Z,1005.25
2017-05-27T00:27:48.156Z,1005.24
2017-05-27T00:30:12.233Z,1005.23
2017-05-27T00:32:36.275Z,1005.23
2017-05-27T00:34:51.909Z,1005.27
2017-05-27T00:37:15.965Z,1005.26
2017-05-27T00:39:31.580Z,1005.28
2017-05-27T00:41:47.178Z,1005.33
2017-05-27T00:44:11.185Z,1005.37
2017-05-27T00:46:35.246Z,1005.3
2017-05-27T00:48:59.293Z,1005.32
2017-05-27T00:51:23.355Z,1005.32
2017-05-27T00:53:47.378Z,1005.29
2017-05-27T00:56:11.455Z,1005.3
2017-05-27T00:58:35.525Z,1005.35
2017-05-27T01:00:59.589Z,1005.33
2017-05-27T01:03:15.220Z,1005.36
2017-05-27T01:05:39.219Z,1005.37
2017-05-27T01:08:03.297Z,1005.37
2017-05-27T01:10:27.282Z,1005.35
2017-05-27T01:12:42.829Z,1005.35
2017-05-27T01:15:06.861Z,1005.36
2017-05-27T01:17:14.003Z,1005.32
2017-05-27T01:19:29.603Z,1005.34
2017-05-27T01:21:53.592Z,1005.32
2017-05-27T01:23:54.969Z,1005.36
2017-05-27T01:26:19.071Z,1005.39
2017-05-27T01:28:43.089Z,1005.36
2017-05-27T01:31:07.117Z,1005.34
2017-05-27T01:33:31.146Z,1005.28
2017-05-27T01:35:55.163Z,1005.27
2017-05-27T01:38:19.181Z,1005.27
2017-05-27T01:40:43.131Z,1005.24
2017-05-27T01:43:07.129Z,1005.24
2017-05-27T01:45:14.234Z,1005.24
2017-05-27T01:47:29.793Z,1005.27
2017-05-27T01:49:53.808Z,1005.31
2017-05-27T01:52:17.908Z,1005.27
2017-05-27T01:54:41.976Z,1005.29
2017-05-27T01:57:06.063Z,1005.34
2017-05-27T01:59:30.043Z,1005.33
2017-05-27T02:01:54.121Z,1005.34
2017-05-27T02:04:18.224Z,1005.37
2017-05-27T02:08:09.714Z,1005.4
2017-05-27T02:10:33.823Z,1005.43
2017-05-27T02:12:49.403Z,1005.47
2017-05-27T02:15:13.378Z,1005.45
2017-05-27T02:17:37.487Z,1005.46
2017-05-27T02:19:53.122Z,1005.46
2017-05-27T02:22:17.131Z,1005.47
2017-05-27T02:24:41.213Z,1005.47
2017-05-27T02:27:05.292Z,1005.45
2017-05-27T02:29:29.372Z,1005.48
2017-05-27T02:31:53.357Z,1005.47
2017-05-27T02:34:17.435Z,1005.54
2017-05-27T02:36:33.011Z,1005.54
2017-05-27T02:38:56.997Z,1005.58
2017-05-27T02:41:21.078Z,1005.58
2017-05-27T02:43:45.163Z,1005.6
2017-05-27T02:46:09.252Z,1005.62
2017-05-27T02:48:24.907Z,1005.65
2017-05-27T02:50:48.905Z,1005.64
2017-05-27T02:53:12.891Z,1005.65
2017-05-27T02:55:28.432Z,1005.66
2017-05-27T02:57:52.448Z,1005.65
2017-05-27T03:00:08.099Z,1005.66
2017-05-27T03:02:18.008Z,1005.73
2017-05-27T03:04:33.570Z,1005.75
2017-05-27T03:06:57.506Z,1005.77
2017-05-27T03:09:21.515Z,1005.74
2017-05-27T03:11:45.496Z,1005.76
2017-05-27T03:14:09.484Z,1005.74
2017-05-27T03:16:33.453Z,1005.77
2017-05-27T03:18:57.371Z,1005.77
2017-05-27T03:21:12.909Z,1005.74
2017-05-27T03:23:28.487Z,1005.73
2017-05-27T03:25:52.469Z,1005.71
2017-05-27T03:27:53.805Z,1005.75
2017-05-27T03:30:03.637Z,1005.74
2017-05-27T03:32:13.489Z,1005.78
2017-05-27T03:34:37.410Z,1005.75
2017-05-27T03:37:01.330Z,1005.8
2017-05-27T03:39:25.355Z,1005.77
2017-05-27T03:41:40.935Z,1005.8
2017-05-27T03:44:04.909Z,1005.8
2017-05-27T03:46:20.508Z,1005.81
2017-05-27T03:48:44.469Z,1005.78
2017-05-27T03:51:08.458Z,1005.81
2017-05-27T03:53:32.451Z,1005.82
2017-05-27T03:55:56.416Z,1005.81
2017-05-27T03:58:20.394Z,1005.85
2017-05-27T04:00:44.384Z,1005.92
2017-05-27T04:03:08.356Z,1005.98
2017-05-27T04:05:32.329Z,1005.97
2017-05-27T04:07:47.890Z,1005.98
2017-05-27T04:10:03.468Z,1005.96
2017-05-27T04:12:19.060Z,1005.98
2017-05-27T04:14:43.067Z,1006.03
2017-05-27T04:17:07.043Z,1005.98
2017-05-27T04:19:31.024Z,1006.06
2017-05-27T04:21:54.995Z,1006.11
2017-05-27T04:24:18.985Z,1006.07
2017-05-27T04:26:42.979Z,1006.24
2017-05-27T04:28:58.639Z,1006.23
2017-05-27T04:31:22.890Z,1006.19
2017-05-27T04:33:47.292Z,1006.33
2017-05-27T04:36:11.818Z,1006.35
2017-05-27T04:38:36.433Z,1006.48
2017-05-27T04:41:01.264Z,1006.42
2017-05-27T04:43:26.206Z,1006.47
2017-05-27T04:45:51.323Z,1006.47
2017-05-27T04:48:16.559Z,1006.46
2017-05-27T04:50:41.888Z,1006.47
2017-05-27T04:53:07.318Z,1006.56
2017-05-27T04:55:32.854Z,1006.55
2017-05-27T04:57:43.261Z,1006.58
2017-05-27T05:00:08.960Z,1006.56
2017-05-27T05:02:34.792Z,1006.59
2017-05-27T05:04:36.646Z,1006.57
2017-05-27T05:06:54.000Z,1006.57
2017-05-27T05:09:20.043Z,1006.64
2017-05-27T05:11:46.061Z,1006.66
2017-05-27T05:14:12.214Z,1006.72
2017-05-27T05:16:38.351Z,1006.68
2017-05-27T05:19:04.597Z,1006.73
2017-05-27T05:21:30.949Z,1006.78
2017-05-27T05:23:57.394Z,1006.82
2017-05-27T05:26:23.847Z,1006.85
2017-05-27T05:28:50.404Z,1006.92
2017-05-27T05:31:16.953Z,1006.94
2017-05-27T05:33:35.134Z,1006.95
2017-05-27T05:36:01.981Z,1006.96
2017-05-27T05:38:28.834Z,1006.91
2017-05-27T05:40:47.089Z,1006.98
2017-05-27T05:43:14.047Z,1006.95
2017-05-27T05:45:41.113Z,1006.95
2017-05-27T05:48:08.178Z,1006.94
2017-05-27T05:50:35.330Z,1006.99
2017-05-27T05:53:02.500Z,1006.99
2017-05-27T05:55:29.655Z,1006.94
2017-05-27T05:57:56.912Z,1006.94
2017-05-27T06:00:24.175Z,1006.96
2017-05-27T06:02:42.809Z,1007.04
2017-05-27T06:05:01.483Z,1006.98
2017-05-27T06:07:28.753Z,1006.99
2017-05-27T06:09:47.517Z,1006.98
2017-05-27T06:12:14.995Z,1006.96
2017-05-27T06:14:33.824Z,1006.93
2017-05-27T06:17:01.456Z,1006.92
2017-05-27T06:19:11.872Z,1006.93
2017-05-27T06:21:14.145Z,1006.93
2017-05-27T06:23:16.388Z,1006.9
2017-05-27T06:25:44.132Z,1006.78
2017-05-27T06:28:11.895Z,1006.76
2017-05-27T06:30:39.575Z,1006.75
2017-05-27T06:33:07.337Z,1006.76
2017-05-27T06:35:35.115Z,1006.86
2017-05-27T06:37:45.635Z,1006.92
2017-05-27T06:40:13.466Z,1006.88
2017-05-27T06:42:41.478Z,1006.87
2017-05-27T06:45:09.410Z,1006.84
2017-05-27T06:47:28.677Z,1006.82
2017-05-27T06:49:56.528Z,1006.81
2017-05-27T06:52:24.165Z,1006.87
2017-05-27T06:54:51.694Z,1006.79
2017-05-27T06:57:19.938Z,1006.72
2017-05-27T06:59:46.942Z,1006.67
2017-05-27T07:01:48.971Z,1006.72
2017-05-27T07:04:15.694Z,1006.69
2017-05-27T07:06:42.212Z,1006.62
2017-05-27T07:09:08.519Z,1006.57
2017-05-27T07:11:34.717Z,1006.54
2017-05-27T07:14:00.848Z,1006.56
2017-05-27T07:16:26.838Z,1006.6
2017-05-27T07:18:44.208Z,1006.54
2017-05-27T07:21:10.083Z,1006.58
2017-05-27T07:23:35.875Z,1006.65
2017-05-27T07:25:46.299Z,1006.68
2017-05-27T07:28:03.451Z,1006.61
2017-05-27T07:30:29.056Z,1006.63
2017-05-27T07:32:54.662Z,1006.63
2017-05-27T07:35:05.154Z,1006.65
2017-05-27T07:37:30.744Z,1006.61
2017-05-27T07:39:47.703Z,1006.63
2017-05-27T07:42:13.288Z,1006.64
2017-05-27T07:44:38.904Z,1006.67
2017-05-27T07:46:40.690Z,1006.68
2017-05-27T07:49:06.401Z,1006.65
2017-05-27T07:51:32.137Z,1006.62
2017-05-27T07:53:57.945Z,1006.61
2017-05-27T07:56:23.781Z,1006.57
2017-05-27T07:58:49.609Z,1006.5
2017-05-27T08:01:15.436Z,1006.4
2017-05-27T08:03:41.258Z,1006.41
2017-05-27T08:05:58.546Z,1006.5
2017-05-27T08:08:24.422Z,1006.42
2017-05-27T08:10:50.157Z,1006.39
2017-05-27T08:13:07.396Z,1006.43
2017-05-27T08:15:24.680Z,1006.38
2017-05-27T08:17:50.600Z,1006.38
2017-05-27T08:20:16.524Z,1006.36
2017-05-27T08:22:42.453Z,1006.3
2017-05-27T08:25:08.372Z,1006.34
2017-05-27T08:27:34.318Z,1006.34
2017-05-27T08:30:00.229Z,1006.37
2017-05-27T08:32:26.160Z,1006.42
2017-05-27T08:34:52.092Z,1006.42
2017-05-27T08:37:09.372Z,1006.34
2017-05-27T08:39:26.706Z,1006.27
2017-05-27T08:41:52.545Z,1006.32
2017-05-27T08:43:54.368Z,1006.33
2017-05-27T08:46:04.805Z,1006.27
2017-05-27T08:48:30.686Z,1006.38
2017-05-27T08:50:56.511Z,1006.23
2017-05-27T08:53:22.334Z,1006.27
2017-05-27T08:55:48.131Z,1006.18
2017-05-27T08:58:13.848Z,1006.21
2017-05-27T09:00:39.577Z,1006.29
2017-05-27T09:03:05.297Z,1006.23
2017-05-27T09:05:31.020Z,1006.26
2017-05-27T09:07:56.749Z,1006.17
2017-05-27T09:10:13.919Z,1006.21
2017-05-27T09:12:39.685Z,1006.11
2017-05-27T09:15:05.417Z,1006.13
2017-05-27T09:17:31.121Z,1006.1
2017-05-27T09:19:56.824Z,1006.08
2017-05-27T09:22:22.557Z,1006.04
2017-05-27T09:24:48.179Z,1006.06
2017-05-27T09:27:05.354Z,1006
2017-05-27T09:29:31.012Z,1005.97
2017-05-27T09:31:56.737Z,1006.05
2017-05-27T09:34:22.452Z,1006.06
2017-05-27T09:36:48.178Z,1006.1
2017-05-27T09:39:05.379Z,1006.07
2017-05-27T09:41:31.126Z,1006.08
2017-05-27T09:43:56.794Z,1006.08
2017-05-27T09:46:22.564Z,1006.09
2017-05-27T09:48:48.279Z,1006.03
2017-05-27T09:51:14.018Z,1006.05
2017-05-27T09:53:39.719Z,1006.06
2017-05-27T09:56:05.445Z,1006.06
2017-05-27T09:58:31.158Z,1006.04
2017-05-27T10:00:56.884Z,1005.91
2017-05-27T10:03:22.592Z,1005.95
2017-05-27T10:05:48.206Z,1005.92
2017-05-27T10:08:13.809Z,1005.91
2017-05-27T10:10:39.437Z,1005.85
2017-05-27T10:13:05.054Z,1005.8
2017-05-27T10:15:15.448Z,1005.87
2017-05-27T10:17:32.503Z,1005.72
2017-05-27T10:19:58.038Z,1005.7
2017-05-27T10:21:51.249Z,1005.71
2017-05-27T10:24:16.797Z,1005.78
2017-05-27T10:26:42.207Z,1005.74
2017-05-27T10:29:07.625Z,1005.7
2017-05-27T10:31:24.530Z,1005.67
2017-05-27T10:33:49.937Z,1005.71
2017-05-27T10:36:15.348Z,1005.76
2017-05-27T10:38:40.662Z,1005.79
2017-05-27T10:41:07.101Z,1005.84
2017-05-27T10:43:32.526Z,1005.76
2017-05-27T10:45:58.725Z,1005.76
2017-05-27T10:48:24.061Z,1005.67
2017-05-27T10:50:49.439Z,1005.67
2017-05-27T10:53:06.213Z,1005.66
2017-05-27T10:55:31.479Z,1005.64
2017-05-27T10:57:56.778Z,1005.61
2017-05-27T11:00:22.084Z,1005.51
2017-05-27T11:02:47.403Z,1005.51
2017-05-27T11:05:12.721Z,1005.43
2017-05-27T11:07:29.520Z,1005.31
2017-05-27T11:09:54.725Z,1005.4
2017-05-27T11:12:11.434Z,1005.33
2017-05-27T11:14:36.642Z,1005.28
2017-05-27T11:17:01.861Z,1005.35
2017-05-27T11:19:27.057Z,1005.31
2017-05-27T11:21:52.273Z,1005.23
2017-05-27T11:24:03.327Z,1005.15
2017-05-27T11:26:28.546Z,1005.28
2017-05-27T11:28:30.248Z,1005.23
2017-05-27T11:30:55.521Z,1005.26
2017-05-27T11:33:20.754Z,1005.14
2017-05-27T11:35:45.927Z,1005.11
2017-05-27T11:38:11.136Z,1005.1
2017-05-27T11:40:27.853Z,1005.14
2017-05-27T11:42:53.061Z,1005.1
2017-05-27T11:45:09.768Z,1005.05
2017-05-27T11:47:26.464Z,1005.07
2017-05-27T11:49:51.600Z,1005.06
2017-05-27T11:52:16.787Z,1005.2
2017-05-27T11:54:42.005Z,1005.1
2017-05-27T11:57:07.209Z,1005.04
2017-05-27T11:59:32.406Z,1004.99
2017-05-27T12:01:57.536Z,1004.99
2017-05-27T12:04:22.724Z,1004.93
2017-05-27T12:06:47.917Z,1004.96
2017-05-27T12:09:13.142Z,1004.8
2017-05-27T12:11:38.357Z,1004.87
2017-05-27T12:14:03.558Z,1004.88
2017-05-27T12:16:28.658Z,1004.85
2017-05-27T12:18:53.874Z,1004.76
2017-05-27T12:21:19.187Z,1004.8
2017-05-27T12:23:44.307Z,1004.91
2017-05-27T12:27:45.422Z,1004.83
2017-05-27T12:29:47.674Z,1004.74
2017-05-27T12:32:12.934Z,1004.84
2017-05-27T12:34:29.743Z,1004.77
2017-05-27T12:36:54.945Z,1004.79
2017-05-27T12:39:20.150Z,1004.69
2017-05-27T12:41:36.851Z,1004.69
2017-05-27T12:44:02.074Z,1004.63
2017-05-27T12:46:18.789Z,1004.58
2017-05-27T12:48:20.449Z,1004.63
2017-05-27T12:50:30.668Z,1004.61
2017-05-27T12:52:55.808Z,1004.61
2017-05-27T12:55:21.010Z,1004.51
2017-05-27T12:57:46.234Z,1004.46
2017-05-27T13:00:11.430Z,1004.54
2017-05-27T13:05:58.420Z,1004.43
2017-05-27T13:08:23.581Z,1004.45
2017-05-27T13:10:48.789Z,1004.51
2017-05-27T13:13:14.001Z,1004.45
2017-05-27T13:15:39.190Z,1004.44
2017-05-27T13:18:04.410Z,1004.38
2017-05-27T13:20:21.120Z,1004.45
2017-05-27T13:22:46.335Z,1004.44
2017-05-27T13:25:11.546Z,1004.38
2017-05-27T13:27:36.744Z,1004.38
2017-05-27T13:30:01.954Z,1004.35
2017-05-27T13:32:27.037Z,1004.31
2017-05-27T13:34:52.277Z,1004.51
2017-05-27T13:37:08.978Z,1004.31
2017-05-27T13:39:34.190Z,1004.36
2017-05-27T13:41:44.480Z,1004.4
2017-05-27T13:44:01.157Z,1004.29
2017-05-27T13:46:26.351Z,1004.28
2017-05-27T13:48:51.583Z,1004.3
2017-05-27T13:51:16.779Z,1004.28
2017-05-27T13:53:18.447Z,1004.25
2017-05-27T13:55:43.661Z,1004.32
2017-05-27T13:57:45.301Z,1004.24
2017-05-27T14:00:02.009Z,1004.26
2017-05-27T14:02:13.080Z,1004.3
2017-05-27T14:04:38.292Z,1004.28
2017-05-27T14:07:03.578Z,1004.29
2017-05-27T14:09:28.721Z,1004.28
2017-05-27T14:11:53.914Z,1004.27
2017-05-27T14:14:19.122Z,1004.29
2017-05-27T14:16:44.344Z,1004.39
2017-05-27T14:19:09.547Z,1004.33
2017-05-27T14:21:34.766Z,1004.31
2017-05-27T14:23:59.959Z,1004.32
2017-05-27T14:26:25.281Z,1004.29
2017-05-27T14:28:41.997Z,1004.28
2017-05-27T14:31:07.196Z,1004.25
2017-05-27T14:33:32.511Z,1004.21
2017-05-27T14:35:58.745Z,1004.18
2017-05-27T14:38:00.416Z,1004.18
2017-05-27T14:40:25.710Z,1004.15
2017-05-27T14:42:50.917Z,1004.09
2017-05-27T14:45:17.137Z,1004.04
2017-05-27T14:47:42.347Z,1004.07
2017-05-27T14:49:44.569Z,1004.12
2017-05-27T14:52:09.852Z,1004.1
2017-05-27T14:54:35.032Z,1004.03
2017-05-27T14:56:51.756Z,1003.85
2017-05-27T14:59:16.989Z,1004.03
2017-05-27T15:01:42.309Z,1004
2017-05-27T15:04:07.508Z,1003.96
2017-05-27T15:06:32.677Z,1003.98
2017-05-27T15:08:57.906Z,1004
2017-05-27T15:11:23.128Z,1003.92
2017-05-27T15:13:48.319Z,1004.02
2017-05-27T15:16:13.516Z,1003.95
2017-05-27T15:18:30.130Z,1003.95
2017-05-27T15:20:55.374Z,1003.94
2017-05-27T15:23:20.603Z,1003.88
2017-05-27T15:25:46.887Z,1003.84
2017-05-27T15:27:49.882Z,1003.84
2017-05-27T15:30:15.173Z,1003.85
2017-05-27T15:32:40.374Z,1003.82
2017-05-27T15:35:05.490Z,1003.82
2017-05-27T15:37:30.691Z,1003.77
2017-05-27T15:39:55.905Z,1003.8
2017-05-27T15:42:21.112Z,1003.72
2017-05-27T15:44:46.326Z,1003.73
2017-05-27T15:47:11.526Z,1003.76
2017-05-27T15:49:28.137Z,1003.78
2017-05-27T15:51:53.347Z,1003.76
2017-05-27T15:54:10.063Z,1003.8
2017-05-27T15:56:26.654Z,1003.81
2017-05-27T15:58:51.790Z,1003.75
2017-05-27T16:01:16.982Z,1003.79
2017-05-27T16:03:42.187Z,1003.82
2017-05-27T16:06:07.905Z,1003.72
2017-05-27T16:08:24.623Z,1003.77
2017-05-27T16:10:41.196Z,1003.78
2017-05-27T16:13:06.429Z,1003.71
2017-05-27T16:15:31.640Z,1003.83
2017-05-27T16:17:56.845Z,1003.73
2017-05-27T16:20:22.058Z,1003.7
2017-05-27T16:22:38.766Z,1003.76
2017-05-27T16:25:03.968Z,1003.74
2017-05-27T16:27:29.176Z,1003.73
2017-05-27T16:29:45.891Z,1003.67
2017-05-27T16:32:02.600Z,1003.69
2017-05-27T16:34:27.797Z,1003.72
2017-05-27T16:36:52.904Z,1003.7
2017-05-27T16:39:18.116Z,1003.68
2017-05-27T16:41:43.322Z,1003.7
2017-05-27T16:44:08.540Z,1003.73
2017-05-27T16:46:33.736Z,1003.67
2017-05-27T16:48:58.853Z,1003.67
2017-05-27T16:51:24.094Z,1003.62
2017-05-27T16:53:51.768Z,1003.59
2017-05-27T16:56:16.825Z,1003.58
2017-05-27T16:58:41.935Z,1003.57
2017-05-27T17:00:58.672Z,1003.57
2017-05-27T17:03:23.859Z,1003.55
2017-05-27T17:05:40.568Z,1003.58
2017-05-27T17:07:57.278Z,1003.59
2017-05-27T17:10:22.380Z,1003.57
2017-05-27T17:12:47.589Z,1003.62
2017-05-27T17:15:04.176Z,1003.63
2017-05-27T17:17:29.282Z,1003.64
2017-05-27T17:19:54.434Z,1003.6
2017-05-27T17:22:19.509Z,1003.66
2017-05-27T17:24:44.616Z,1003.6
2017-05-27T17:27:09.727Z,1003.65
2017-05-27T17:29:34.822Z,1003.59
2017-05-27T17:31:59.942Z,1003.6
2017-05-27T17:34:25.037Z,1003.64
2017-05-27T17:36:50.134Z,1003.67
2017-05-27T17:39:15.255Z,1003.71
2017-05-27T17:41:31.857Z,1003.67
2017-05-27T17:43:56.946Z,1003.65
2017-05-27T17:46:21.954Z,1003.63
2017-05-27T17:48:46.953Z,1003.75
2017-05-27T17:51:12.046Z,1003.7
2017-05-27T17:53:37.064Z,1003.75
2017-05-27T17:55:39.187Z,1003.73
2017-05-27T17:58:04.248Z,1003.75
2017-05-27T18:00:20.740Z,1003.77
2017-05-27T18:02:45.843Z,1003.75
2017-05-27T18:05:10.853Z,1003.77
2017-05-27T18:07:35.874Z,1003.8
2017-05-27T18:09:37.511Z,1003.81
2017-05-27T18:12:02.618Z,1003.84
2017-05-27T18:14:19.121Z,1003.87
2017-05-27T18:16:44.120Z,1003.9
2017-05-27T18:19:09.116Z,1003.87
2017-05-27T18:21:34.125Z,1003.95
2017-05-27T18:23:59.223Z,1004
2017-05-27T18:26:24.240Z,1004
2017-05-27T18:28:49.295Z,1004.08
2017-05-27T18:31:14.239Z,1004.09
2017-05-27T18:33:30.665Z,1004.13
2017-05-27T18:35:55.660Z,1004.18
2017-05-27T18:38:20.665Z,1004.14
2017-05-27T18:40:45.662Z,1004.21
2017-05-27T18:43:10.654Z,1004.2
2017-05-27T18:45:35.575Z,1004.25
2017-05-27T18:48:00.559Z,1004.27
2017-05-27T18:50:25.528Z,1004.29
2017-05-27T18:52:50.540Z,1004.33
2017-05-27T18:55:15.435Z,1004.33
2017-05-27T18:57:14.882Z,1004.4
2017-05-27T18:59:39.753Z,1004.37
2017-05-27T19:02:04.664Z,1004.41
2017-05-27T19:04:29.560Z,1004.35
2017-05-27T19:06:54.456Z,1004.38
2017-05-27T19:09:19.343Z,1004.4
2017-05-27T19:11:35.789Z,1004.42
2017-05-27T19:14:00.680Z,1004.46
2017-05-27T19:16:25.556Z,1004.49
2017-05-27T19:18:50.453Z,1004.49
2017-05-27T19:20:52.053Z,1004.44
2017-05-27T19:23:17.031Z,1004.49
2017-05-27T19:25:41.922Z,1004.49
2017-05-27T19:28:06.800Z,1004.55
2017-05-27T19:30:23.214Z,1004.52
2017-05-27T19:32:48.007Z,1004.54
2017-05-27T19:35:12.818Z,1004.56
2017-05-27T19:37:37.616Z,1004.6
2017-05-27T19:39:53.937Z,1004.66
2017-05-27T19:42:04.093Z,1004.71
2017-05-27T19:44:05.644Z,1004.71
2017-05-27T19:46:30.517Z,1004.76
2017-05-27T19:48:55.314Z,1004.81
2017-05-27T19:56:42.251Z,1004.89
2017-05-27T20:00:42.703Z,1004.89
2017-05-27T20:02:58.955Z,1004.91
2017-05-27T20:05:23.600Z,1004.96
2017-05-27T20:07:25.408Z,1004.97
2017-05-27T20:09:41.689Z,1005.01
2017-05-27T20:12:06.351Z,1005.04
2017-05-27T20:14:22.661Z,1005.07
2017-05-27T20:16:47.449Z,1005.14
2017-05-27T20:19:12.212Z,1005.1
2017-05-27T20:21:36.953Z,1005.16
2017-05-27T20:23:38.490Z,1005.1
2017-05-27T20:26:03.298Z,1005.11
2017-05-27T20:28:04.857Z,1005.13
2017-05-27T20:30:21.160Z,1005.13
2017-05-27T20:32:45.858Z,1005.2
2017-05-27T20:35:10.546Z,1005.2
2017-05-27T20:37:26.773Z,1005.19
2017-05-27T20:39:51.671Z,1005.19
2017-05-27T20:42:16.333Z,1005.2
2017-05-27T20:44:32.559Z,1005.2
2017-05-27T20:46:57.236Z,1005.19
2017-05-27T20:48:58.827Z,1005.19
2017-05-27T20:51:25.477Z,1005.18
2017-05-27T20:53:41.721Z,1005.19
2017-05-27T20:55:57.941Z,1005.18
2017-05-27T20:58:22.615Z,1005.2
2017-05-27T21:00:48.334Z,1005.21
2017-05-27T21:03:13.036Z,1005.17
2017-05-27T21:05:37.720Z,1005.25
2017-05-27T21:08:02.300Z,1005.25
2017-05-27T21:10:03.833Z,1005.26
2017-05-27T21:12:05.292Z,1005.24
2017-05-27T21:14:30.019Z,1005.2
2017-05-27T21:16:46.203Z,1005.18
2017-05-27T21:19:10.802Z,1005.12
2017-05-27T21:21:26.899Z,1005.09
2017-05-27T21:23:51.481Z,1005.17
2017-05-27T21:26:16.391Z,1005.14
2017-05-27T21:28:41.007Z,1005.16
2017-05-27T21:30:42.988Z,1005.14
2017-05-27T21:33:07.645Z,1005.13
2017-05-27T21:35:32.234Z,1005.13
2017-05-27T21:37:48.357Z,1005.1
2017-05-27T21:40:12.915Z,1005.13
2017-05-27T21:42:37.502Z,1005.12
2017-05-27T21:44:53.547Z,1005.1
2017-05-27T21:47:09.629Z,1005.12
2017-05-27T21:51:10.065Z,1005.09
2017-05-27T21:53:34.635Z,1005.08
2017-05-27T21:55:59.227Z,1005.1
2017-05-27T21:58:23.715Z,1005.14
2017-05-27T22:00:48.201Z,1005.11
2017-05-27T22:03:04.313Z,1005.12
2017-05-27T22:05:28.889Z,1005.16
2017-05-27T22:07:53.391Z,1005.15
2017-05-27T22:10:17.875Z,1005.19
2017-05-27T22:12:42.369Z,1005.19
2017-05-27T22:14:43.871Z,1005.17
2017-05-27T22:17:08.430Z,1005.22
2017-05-27T22:19:32.901Z,1005.23
2017-05-27T22:21:57.407Z,1005.28
2017-05-27T22:24:21.882Z,1005.25
2017-05-27T22:26:46.370Z,1005.23
2017-05-27T22:29:10.862Z,1005.27
2017-05-27T22:31:35.358Z,1005.24
2017-05-27T22:33:59.853Z,1005.23
2017-05-27T22:36:24.358Z,1005.22
2017-05-27T22:38:48.825Z,1005.2
2017-05-27T22:41:04.819Z,1005.2
2017-05-27T22:43:29.309Z,1005.21
2017-05-27T22:45:39.341Z,1005.21
2017-05-27T22:48:03.854Z,1005.17
2017-05-27T22:50:19.884Z,1005.15
2017-05-27T22:52:44.332Z,1005.16
2017-05-27T22:55:08.722Z,1005.17
2017-05-27T22:57:24.759Z,1005.19
2017-05-27T22:59:49.206Z,1005.17
2017-05-27T23:02:13.598Z,1005.15
2017-05-27T23:04:37.978Z,1005.1
2017-05-27T23:06:39.430Z,1005.14
2017-05-27T23:09:03.929Z,1005.16
2017-05-27T23:11:19.957Z,1005.15
2017-05-27T23:13:35.912Z,1005.17
2017-05-27T23:15:37.491Z,1005.16
2017-05-27T23:18:01.948Z,1005.13
2017-05-27T23:20:26.344Z,1005.11
2017-05-27T23:22:50.834Z,1005.06
2017-05-27T23:25:15.225Z,1005.07
2017-05-27T23:27:39.617Z,1005.07
2017-05-27T23:30:04.008Z,1005.04
2017-05-27T23:32:14.108Z,1005.04
2017-05-27T23:34:38.534Z,1005.14
2017-05-27T23:36:54.483Z,1005.15
2017-05-27T23:39:10.472Z,1005.11
2017-05-27T23:41:34.925Z,1005.04
2017-05-27T23:43:59.406Z,1005.03
2017-05-27T23:46:06.905Z,1004.99
2017-05-27T23:48:31.287Z,1005
2017-05-27T23:50:55.679Z,1005
2017-05-27T23:52:57.164Z,1005.01
2017-05-27T23:54:58.622Z,1005
2017-05-27T23:57:14.618Z,1005.04
2017-05-27T23:59:38.963Z,1005.04
